sensor_id;sensor_type;location;lat;lon;timestamp;temperature;humidity
72919;SHT30;68407;55.694;26.994;2023-07-24T00:00:20;15.5;88.1
72919;SHT30;68407;55.694;26.994;2023-07-24T00:05:34;15.5;88.2
72919;SHT30;68407;55.694;26.994;2023-07-24T00:11:02;15.5;88.3
72919;SHT30;68407;55.694;26.994;2023-07-24T00:15:46;15.5;88.5
72919;SHT30;68407;55.694;26.994;2023-07-24T00:20:38;15.5;88.5
72919;SHT30;68407;55.694;26.994;2023-07-24T00:26:02;15.5;88.5
72919;SHT30;68407;55.694;26.994;2023-07-24T00:30:46;15.4;88.7
72919;SHT30;68407;55.694;26.994;2023-07-24T00:35:36;15.4;89
72919;SHT30;68407;55.694;26.994;2023-07-24T00:40:46;15.4;89.1
72919;SHT30;68407;55.694;26.994;2023-07-24T00:45:54;15.4;89.2
72919;SHT30;68407;55.694;26.994;2023-07-24T00:50:54;15.4;89.2
72919;SHT30;68407;55.694;26.994;2023-07-24T00:56:02;15.4;89.3
72919;SHT30;68407;55.694;26.994;2023-07-24T01:01:02;15.4;89.2
72919;SHT30;68407;55.694;26.994;2023-07-24T01:05:46;15.4;89.2
72919;SHT30;68407;55.694;26.994;2023-07-24T01:10:20;15.4;89.2
72919;SHT30;68407;55.694;26.994;2023-07-24T01:15:48;15.4;89.3
72919;SHT30;68407;55.694;26.994;2023-07-24T01:21:02;15.3;89.5
72919;SHT30;68407;55.694;26.994;2023-07-24T01:25:47;15.4;89.4
72919;SHT30;68407;55.694;26.994;2023-07-24T01:30:28;15.4;89.4
72919;SHT30;68407;55.694;26.994;2023-07-24T01:36:02;15.3;89.4
72919;SHT30;68407;55.694;26.994;2023-07-24T01:40:14;15.3;89.5
72919;SHT30;68407;55.694;26.994;2023-07-24T01:45:14;15.4;89.6
72919;SHT30;68407;55.694;26.994;2023-07-24T01:50:20;15.4;89.5
72919;SHT30;68407;55.694;26.994;2023-07-24T01:55:44;15.5;89.5
72919;SHT30;68407;55.694;26.994;2023-07-24T02:01:02;15.5;89.4
72919;SHT30;68407;55.694;26.994;2023-07-24T02:06:02;15.5;89.4
72919;SHT30;68407;55.694;26.994;2023-07-24T02:10:14;15.6;89.5
72919;SHT30;68407;55.694;26.994;2023-07-24T02:15:50;15.6;89.4
72919;SHT30;68407;55.694;26.994;2023-07-24T02:21:02;15.7;89.3
72919;SHT30;68407;55.694;26.994;2023-07-24T02:25:28;15.7;89.2
72919;SHT30;68407;55.694;26.994;2023-07-24T02:30:26;15.7;89.1
72919;SHT30;68407;55.694;26.994;2023-07-24T02:35:38;15.7;89.1
72919;SHT30;68407;55.694;26.994;2023-07-24T02:41:02;15.7;89.1
72919;SHT30;68407;55.694;26.994;2023-07-24T02:45:36;15.7;89
72919;SHT30;68407;55.694;26.994;2023-07-24T02:50:14;15.7;89.1
72919;SHT30;68407;55.694;26.994;2023-07-24T02:55:44;15.8;89.1
72919;SHT30;68407;55.694;26.994;2023-07-24T03:00:14;15.9;88.9
72919;SHT30;68407;55.694;26.994;2023-07-24T03:05:46;15.9;88.7
72919;SHT30;68407;55.694;26.994;2023-07-24T03:10:52;15.9;88.7
72919;SHT30;68407;55.694;26.994;2023-07-24T03:16:02;15.8;88.8
72919;SHT30;68407;55.694;26.994;2023-07-24T03:20:20;15.8;88.9
72919;SHT30;68407;55.694;26.994;2023-07-24T03:25:14;15.7;89.1
72919;SHT30;68407;55.694;26.994;2023-07-24T03:31:02;15.8;89.1
72919;SHT30;68407;55.694;26.994;2023-07-24T03:35:28;15.7;89.2
72919;SHT30;68407;55.694;26.994;2023-07-24T03:40:14;15.8;89
72919;SHT30;68407;55.694;26.994;2023-07-24T03:45:14;15.9;88.8
72919;SHT30;68407;55.694;26.994;2023-07-24T03:50:57;16;88.8
72919;SHT30;68407;55.694;26.994;2023-07-24T03:55:20;16.1;88.5
72919;SHT30;68407;55.694;26.994;2023-07-24T04:00:28;16.2;88.4
72919;SHT30;68407;55.694;26.994;2023-07-24T04:05:46;16.3;87.9
72919;SHT30;68407;55.694;26.994;2023-07-24T04:10:30;16.4;87.9
72919;SHT30;68407;55.694;26.994;2023-07-24T04:16:02;16.4;87.7
72919;SHT30;68407;55.694;26.994;2023-07-24T04:20:36;16.4;87.8
72919;SHT30;68407;55.694;26.994;2023-07-24T04:25:14;16.6;87.4
72919;SHT30;68407;55.694;26.994;2023-07-24T04:30:20;16.8;86.7
72919;SHT30;68407;55.694;26.994;2023-07-24T04:36:02;17.1;86.2
72919;SHT30;68407;55.694;26.994;2023-07-24T04:40:46;17.2;85.8
72919;SHT30;68407;55.694;26.994;2023-07-24T04:45:52;17.2;85.6
72919;SHT30;68407;55.694;26.994;2023-07-24T04:51:02;17.2;85.5
72919;SHT30;68407;55.694;26.994;2023-07-24T04:55:46;17.2;85.3
72919;SHT30;68407;55.694;26.994;2023-07-24T05:00:20;17.2;85
72919;SHT30;68407;55.694;26.994;2023-07-24T05:05:14;17.3;85.1
72919;SHT30;68407;55.694;26.994;2023-07-24T05:11:02;17.5;84.8
72919;SHT30;68407;55.694;26.994;2023-07-24T05:16:02;17.6;84.5
72919;SHT30;68407;55.694;26.994;2023-07-24T05:21:02;17.7;84
72919;SHT30;68407;55.694;26.994;2023-07-24T05:26:03;17.8;83.5
72919;SHT30;68407;55.694;26.994;2023-07-24T05:30:46;17.9;83
72919;SHT30;68407;55.694;26.994;2023-07-24T05:35:14;17.9;83
72919;SHT30;68407;55.694;26.994;2023-07-24T05:40:46;17.9;83.1
72919;SHT30;68407;55.694;26.994;2023-07-24T05:46:02;18.2;83
72919;SHT30;68407;55.694;26.994;2023-07-24T05:50:16;18.3;81.6
72919;SHT30;68407;55.694;26.994;2023-07-24T05:55:30;18.2;81.2
72919;SHT30;68407;55.694;26.994;2023-07-24T06:01:00;18.5;81
72919;SHT30;68407;55.694;26.994;2023-07-24T06:05:20;18.3;81.4
72919;SHT30;68407;55.694;26.994;2023-07-24T06:10:14;18.2;81
72919;SHT30;68407;55.694;26.994;2023-07-24T06:15:42;18.4;80.6
72919;SHT30;68407;55.694;26.994;2023-07-24T06:20:42;18.9;79
72919;SHT30;68407;55.694;26.994;2023-07-24T06:25:34;19.3;78.2
72919;SHT30;68407;55.694;26.994;2023-07-24T06:30:46;19.7;75.8
72919;SHT30;68407;55.694;26.994;2023-07-24T06:35:14;19.9;75.3
72919;SHT30;68407;55.694;26.994;2023-07-24T06:40:14;19.5;74.4
72919;SHT30;68407;55.694;26.994;2023-07-24T06:45:14;19.3;74.1
72919;SHT30;68407;55.694;26.994;2023-07-24T06:50:46;19.2;75.6
72919;SHT30;68407;55.694;26.994;2023-07-24T06:55:26;19.3;75.9
72919;SHT30;68407;55.694;26.994;2023-07-24T07:00:40;19.4;75.4
72919;SHT30;68407;55.694;26.994;2023-07-24T07:05:58;19.5;74.9
72919;SHT30;68407;55.694;26.994;2023-07-24T07:10:14;19.3;75.4
72919;SHT30;68407;55.694;26.994;2023-07-24T07:15:36;19.4;75.5
72919;SHT30;68407;55.694;26.994;2023-07-24T07:20:44;19.5;75.2
72919;SHT30;68407;55.694;26.994;2023-07-24T07:25:29;19.5;75.2
72919;SHT30;68407;55.694;26.994;2023-07-24T07:30:32;19.7;74.1
72919;SHT30;68407;55.694;26.994;2023-07-24T07:35:50;20.1;72
72919;SHT30;68407;55.694;26.994;2023-07-24T07:41:03;20.4;72.3
72919;SHT30;68407;55.694;26.994;2023-07-24T07:45:14;19.9;72.6
72919;SHT30;68407;55.694;26.994;2023-07-24T07:50:14;19.7;73.5
72919;SHT30;68407;55.694;26.994;2023-07-24T07:56:02;20.1;73
72919;SHT30;68407;55.694;26.994;2023-07-24T08:00:52;20.6;71.3
72919;SHT30;68407;55.694;26.994;2023-07-24T08:05:34;20.5;70.5
72919;SHT30;68407;55.694;26.994;2023-07-24T08:10:14;20.4;71.8
72919;SHT30;68407;55.694;26.994;2023-07-24T08:16:00;20.9;71.5
72919;SHT30;68407;55.694;26.994;2023-07-24T08:20:26;21.1;69.8
72919;SHT30;68407;55.694;26.994;2023-07-24T08:25:28;20.9;71.3
72919;SHT30;68407;55.694;26.994;2023-07-24T08:30:46;20.8;70.8
72919;SHT30;68407;55.694;26.994;2023-07-24T08:36:01;20.8;70.4
72919;SHT30;68407;55.694;26.994;2023-07-24T08:41:01;20.9;70.5
72919;SHT30;68407;55.694;26.994;2023-07-24T08:45:36;21;69.7
72919;SHT30;68407;55.694;26.994;2023-07-24T08:50:14;21.1;68.8
72919;SHT30;68407;55.694;26.994;2023-07-24T08:55:14;21.6;67.8
72919;SHT30;68407;55.694;26.994;2023-07-24T09:01:01;22.3;67.7
72919;SHT30;68407;55.694;26.994;2023-07-24T09:05:46;22.2;66.2
72919;SHT30;68407;55.694;26.994;2023-07-24T09:10:53;22.1;66.8
72919;SHT30;68407;55.694;26.994;2023-07-24T09:16:00;22.2;66.6
72919;SHT30;68407;55.694;26.994;2023-07-24T09:20:46;21.8;66.2
72919;SHT30;68407;55.694;26.994;2023-07-24T09:25:37;22;67.5
72919;SHT30;68407;55.694;26.994;2023-07-24T09:30:20;22.5;65.7
72919;SHT30;68407;55.694;26.994;2023-07-24T09:36:03;22.4;65.2
72919;SHT30;68407;55.694;26.994;2023-07-24T09:41:03;21.8;66.5
72919;SHT30;68407;55.694;26.994;2023-07-24T09:46:04;21.7;67.3
72919;SHT30;68407;55.694;26.994;2023-07-24T09:51:02;21.9;66.9
72919;SHT30;68407;55.694;26.994;2023-07-24T09:55:49;22.3;66.3
72919;SHT30;68407;55.694;26.994;2023-07-24T10:00:14;23;64.7
72919;SHT30;68407;55.694;26.994;2023-07-24T10:05:47;23.2;64.8
72919;SHT30;68407;55.694;26.994;2023-07-24T10:11:02;23;63.8
72919;SHT30;68407;55.694;26.994;2023-07-24T10:15:44;22.6;64.7
72919;SHT30;68407;55.694;26.994;2023-07-24T10:20:34;22.6;65.4
72919;SHT30;68407;55.694;26.994;2023-07-24T10:26:03;22.5;65
72919;SHT30;68407;55.694;26.994;2023-07-24T10:30:27;22.5;66
72919;SHT30;68407;55.694;26.994;2023-07-24T10:35:20;23.5;65.5
72919;SHT30;68407;55.694;26.994;2023-07-24T10:40:22;24.2;63.9
72919;SHT30;68407;55.694;26.994;2023-07-24T10:45:38;24.5;61.3
72919;SHT30;68407;55.694;26.994;2023-07-24T10:50:45;24.6;62
72919;SHT30;68407;55.694;26.994;2023-07-24T10:55:38;24.8;61.6
72919;SHT30;68407;55.694;26.994;2023-07-24T11:00:38;24.2;62.7
72919;SHT30;68407;55.694;26.994;2023-07-24T11:05:14;23.8;63.7
72919;SHT30;68407;55.694;26.994;2023-07-24T11:10:15;23.5;63.2
72919;SHT30;68407;55.694;26.994;2023-07-24T11:15:28;23.3;64.5
72919;SHT30;68407;55.694;26.994;2023-07-24T11:20:36;22.8;64.2
72919;SHT30;68407;55.694;26.994;2023-07-24T11:26:03;22.4;65.7
72919;SHT30;68407;55.694;26.994;2023-07-24T11:31:02;22.1;66.9
72919;SHT30;68407;55.694;26.994;2023-07-24T11:35:37;22.1;67.7
72919;SHT30;68407;55.694;26.994;2023-07-24T11:40:14;22.2;67.6
72919;SHT30;68407;55.694;26.994;2023-07-24T11:45:51;22.2;67.2
72919;SHT30;68407;55.694;26.994;2023-07-24T11:50:41;22.3;66.7
72919;SHT30;68407;55.694;26.994;2023-07-24T11:55:36;22.4;66
72919;SHT30;68407;55.694;26.994;2023-07-24T12:00:17;22.5;66.1
72919;SHT30;68407;55.694;26.994;2023-07-24T12:05:54;22.3;66.2
72919;SHT30;68407;55.694;26.994;2023-07-24T12:10:30;22.2;66.7
72919;SHT30;68407;55.694;26.994;2023-07-24T12:15:22;22.3;67.3
72919;SHT30;68407;55.694;26.994;2023-07-24T12:21:04;22.4;67.8
72919;SHT30;68407;55.694;26.994;2023-07-24T12:25:54;22.8;67.5
72919;SHT30;68407;55.694;26.994;2023-07-24T12:30:36;23;66.5
72919;SHT30;68407;55.694;26.994;2023-07-24T12:35:17;23;66
72919;SHT30;68407;55.694;26.994;2023-07-24T12:41:02;24;64.7
72919;SHT30;68407;55.694;26.994;2023-07-24T12:45:16;25;62.4
72919;SHT30;68407;55.694;26.994;2023-07-24T12:50:25;24.7;62.8
72919;SHT30;68407;55.694;26.994;2023-07-24T12:55:48;23.9;63.6
72919;SHT30;68407;55.694;26.994;2023-07-24T13:00:54;23.3;64.6
72919;SHT30;68407;55.694;26.994;2023-07-24T13:06:04;23.4;65.6
72919;SHT30;68407;55.694;26.994;2023-07-24T13:10:16;23.9;64.8
72919;SHT30;68407;55.694;26.994;2023-07-24T13:15:16;24.3;64
72919;SHT30;68407;55.694;26.994;2023-07-24T13:20:16;24.6;63.5
72919;SHT30;68407;55.694;26.994;2023-07-24T13:26:00;24.8;61.9
72919;SHT30;68407;55.694;26.994;2023-07-24T13:30:46;24.7;61.8
72919;SHT30;68407;55.694;26.994;2023-07-24T13:35:48;24.6;62.3
72919;SHT30;68407;55.694;26.994;2023-07-24T13:40:38;24.5;62.5
72919;SHT30;68407;55.694;26.994;2023-07-24T13:45:18;24.7;62.3
72919;SHT30;68407;55.694;26.994;2023-07-24T13:50:17;24.9;62.2
72919;SHT30;68407;55.694;26.994;2023-07-24T13:55:22;24.9;61.7
72919;SHT30;68407;55.694;26.994;2023-07-24T14:01:04;24.3;62.1
72919;SHT30;68407;55.694;26.994;2023-07-24T14:06:04;24.2;63.9
72919;SHT30;68407;55.694;26.994;2023-07-24T14:11:05;24.4;63.1
72919;SHT30;68407;55.694;26.994;2023-07-24T14:16:04;24.3;63.3
72919;SHT30;68407;55.694;26.994;2023-07-24T14:20:42;23.8;64
72919;SHT30;68407;55.694;26.994;2023-07-24T14:25:16;23.8;65.9
72919;SHT30;68407;55.694;26.994;2023-07-24T14:30:48;23.8;65.1
72919;SHT30;68407;55.694;26.994;2023-07-24T14:36:04;23.8;64.3
72919;SHT30;68407;55.694;26.994;2023-07-24T14:40:46;24.1;63.5
72919;SHT30;68407;55.694;26.994;2023-07-24T14:45:36;24;63.4
72919;SHT30;68407;55.694;26.994;2023-07-24T14:51:05;23.7;64.1
72919;SHT30;68407;55.694;26.994;2023-07-24T14:55:22;23.7;64.9
72919;SHT30;68407;55.694;26.994;2023-07-24T15:00:22;23.7;64.1
72919;SHT30;68407;55.694;26.994;2023-07-24T15:05:30;24;63.8
72919;SHT30;68407;55.694;26.994;2023-07-24T15:10:47;24;63.8
72919;SHT30;68407;55.694;26.994;2023-07-24T15:15:46;23.8;64.9
72919;SHT30;68407;55.694;26.994;2023-07-24T15:20:48;23.9;65.5
72919;SHT30;68407;55.694;26.994;2023-07-24T15:25:17;24.2;64.2
72919;SHT30;68407;55.694;26.994;2023-07-24T15:30:22;24.1;63.6
72919;SHT30;68407;55.694;26.994;2023-07-24T15:35:16;23.9;65.2
72919;SHT30;68407;55.694;26.994;2023-07-24T15:40:30;23.7;65.5
72919;SHT30;68407;55.694;26.994;2023-07-24T15:45:22;23.4;66.8
72919;SHT30;68407;55.694;26.994;2023-07-24T15:50:46;23.2;67.8
72919;SHT30;68407;55.694;26.994;2023-07-24T15:56:05;23.1;68.6
72919;SHT30;68407;55.694;26.994;2023-07-24T16:00:38;22.9;68.8
72919;SHT30;68407;55.694;26.994;2023-07-24T16:05:39;22.9;69.4
72919;SHT30;68407;55.694;26.994;2023-07-24T16:10:25;23;69.1
72919;SHT30;68407;55.694;26.994;2023-07-24T16:15:31;22.9;69.2
72919;SHT30;68407;55.694;26.994;2023-07-24T16:20:37;22.7;69.8
72919;SHT30;68407;55.694;26.994;2023-07-24T16:25:39;22.6;69
72919;SHT30;68407;55.694;26.994;2023-07-24T16:31:05;22.8;68.9
72919;SHT30;68407;55.694;26.994;2023-07-24T16:35:25;23.3;68.5
72919;SHT30;68407;55.694;26.994;2023-07-24T16:40:17;24;66.4
72919;SHT30;68407;55.694;26.994;2023-07-24T16:46:05;24.3;64.7
72919;SHT30;68407;55.694;26.994;2023-07-24T16:50:55;24.5;65.1
72919;SHT30;68407;55.694;26.994;2023-07-24T16:55:37;24.4;65.7
72919;SHT30;68407;55.694;26.994;2023-07-24T17:00:17;24.2;66.2
72919;SHT30;68407;55.694;26.994;2023-07-24T17:06:05;24.1;66.8
72919;SHT30;68407;55.694;26.994;2023-07-24T17:10:40;23.6;68.3
72919;SHT30;68407;55.694;26.994;2023-07-24T17:16:05;23;69.5
72919;SHT30;68407;55.694;26.994;2023-07-24T17:20:49;22.5;71.4
72919;SHT30;68407;55.694;26.994;2023-07-24T17:25:55;22.1;73
72919;SHT30;68407;55.694;26.994;2023-07-24T17:31:05;21.9;74.1
72919;SHT30;68407;55.694;26.994;2023-07-24T17:35:17;21.7;74.6
72919;SHT30;68407;55.694;26.994;2023-07-24T17:40:17;21.3;75.7
72919;SHT30;68407;55.694;26.994;2023-07-24T17:45:17;21.1;76.4
72919;SHT30;68407;55.694;26.994;2023-07-24T17:51:05;20.7;77.3
72919;SHT30;68407;55.694;26.994;2023-07-24T17:55:49;20.5;78.1
72919;SHT30;68407;55.694;26.994;2023-07-24T18:00:55;20.2;78.9
72919;SHT30;68407;55.694;26.994;2023-07-24T18:06:03;20.1;79.5
72919;SHT30;68407;55.694;26.994;2023-07-24T18:10:49;20;80.1
72919;SHT30;68407;55.694;26.994;2023-07-24T18:15:23;19.8;80.8
72919;SHT30;68407;55.694;26.994;2023-07-24T18:20:17;19.7;81.2
72919;SHT30;68407;55.694;26.994;2023-07-24T18:26:05;19.7;81.3
72919;SHT30;68407;55.694;26.994;2023-07-24T18:31:06;19.7;81.5
72919;SHT30;68407;55.694;26.994;2023-07-24T18:36:05;19.7;81.5
72919;SHT30;68407;55.694;26.994;2023-07-24T18:41:05;19.6;81.4
72919;SHT30;68407;55.694;26.994;2023-07-24T18:45:49;19.6;81.6
72919;SHT30;68407;55.694;26.994;2023-07-24T18:50:31;19.5;81.8
72919;SHT30;68407;55.694;26.994;2023-07-24T18:55:49;19.4;81.9
72919;SHT30;68407;55.694;26.994;2023-07-24T19:00:47;19.3;81.9
72919;SHT30;68407;55.694;26.994;2023-07-24T19:05:47;19.2;82.2
72919;SHT30;68407;55.694;26.994;2023-07-24T19:10:37;19;82.5
72919;SHT30;68407;55.694;26.994;2023-07-24T19:16:05;18.8;82.9
72919;SHT30;68407;55.694;26.994;2023-07-24T19:20:31;18.6;83
72919;SHT30;68407;55.694;26.994;2023-07-24T19:25:23;18.5;83.4
72919;SHT30;68407;55.694;26.994;2023-07-24T19:30:31;18.3;83.3
72919;SHT30;68407;55.694;26.994;2023-07-24T19:35:47;18.2;83.8
72919;SHT30;68407;55.694;26.994;2023-07-24T19:40:53;18.1;84.4
72919;SHT30;68407;55.694;26.994;2023-07-24T19:45:49;18;84.6
72919;SHT30;68407;55.694;26.994;2023-07-24T19:50:40;17.8;84.6
72919;SHT30;68407;55.694;26.994;2023-07-24T19:56:05;17.6;84.3
72919;SHT30;68407;55.694;26.994;2023-07-24T20:00:25;17.5;85
72919;SHT30;68407;55.694;26.994;2023-07-24T20:05:23;17.4;85.5
72919;SHT30;68407;55.694;26.994;2023-07-24T20:10:17;17.3;85.6
72919;SHT30;68407;55.694;26.994;2023-07-24T20:16:05;17.3;85.6
72919;SHT30;68407;55.694;26.994;2023-07-24T20:21:05;17.3;85.6
72919;SHT30;68407;55.694;26.994;2023-07-24T20:25:23;17.3;85.5
72919;SHT30;68407;55.694;26.994;2023-07-24T20:30:23;17.1;85.8
72919;SHT30;68407;55.694;26.994;2023-07-24T20:36:05;16.9;85.9
72919;SHT30;68407;55.694;26.994;2023-07-24T20:40:23;16.9;85.8
72919;SHT30;68407;55.694;26.994;2023-07-24T20:45:37;16.7;85.8
72919;SHT30;68407;55.694;26.994;2023-07-24T20:50:17;16.7;86.4
72919;SHT30;68407;55.694;26.994;2023-07-24T20:55:55;16.7;85.9
72919;SHT30;68407;55.694;26.994;2023-07-24T21:00:17;16.6;86.1
72919;SHT30;68407;55.694;26.994;2023-07-24T21:05:33;16.6;86.1
72919;SHT30;68407;55.694;26.994;2023-07-24T21:11:03;16.5;86.8
72919;SHT30;68407;55.694;26.994;2023-07-24T21:15:55;16.5;86.4
72919;SHT30;68407;55.694;26.994;2023-07-24T21:20:17;16.5;86.3
72919;SHT30;68407;55.694;26.994;2023-07-24T21:25:33;16.4;86.6
72919;SHT30;68407;55.694;26.994;2023-07-24T21:31:06;16.4;87
72919;SHT30;68407;55.694;26.994;2023-07-24T21:35:17;16.3;87.5
72919;SHT30;68407;55.694;26.994;2023-07-24T21:41:01;16.2;86.9
72919;SHT30;68407;55.694;26.994;2023-07-24T21:45:49;16.2;87
72919;SHT30;68407;55.694;26.994;2023-07-24T21:50:19;16.2;87.1
72919;SHT30;68407;55.694;26.994;2023-07-24T21:56:05;16.1;87
72919;SHT30;68407;55.694;26.994;2023-07-24T22:00:19;16.1;87.1
72919;SHT30;68407;55.694;26.994;2023-07-24T22:05:17;16;87.1
72919;SHT30;68407;55.694;26.994;2023-07-24T22:10:36;16;86.7
72919;SHT30;68407;55.694;26.994;2023-07-24T22:16:03;16;87.3
72919;SHT30;68407;55.694;26.994;2023-07-24T22:20:52;15.9;86.5
72919;SHT30;68407;55.694;26.994;2023-07-24T22:25:55;15.8;87.1
72919;SHT30;68407;55.694;26.994;2023-07-24T22:31:07;15.7;87.4
72919;SHT30;68407;55.694;26.994;2023-07-24T22:40:32;15.6;87
72919;SHT30;68407;55.694;26.994;2023-07-24T22:45:31;15.6;87.3
72919;SHT30;68407;55.694;26.994;2023-07-24T22:51:05;15.5;86.9
72919;SHT30;68407;55.694;26.994;2023-07-24T22:56:07;15.3;86.3
72919;SHT30;68407;55.694;26.994;2023-07-24T23:01:06;15.3;86.9
72919;SHT30;68407;55.694;26.994;2023-07-24T23:10:47;15.3;87.1
72919;SHT30;68407;55.694;26.994;2023-07-24T23:15:18;15.3;87.2
72919;SHT30;68407;55.694;26.994;2023-07-24T23:20:47;15.2;86.8
72919;SHT30;68407;55.694;26.994;2023-07-24T23:26:03;15.1;86.9
72919;SHT30;68407;55.694;26.994;2023-07-24T23:30:38;15.1;87.5
72919;SHT30;68407;55.694;26.994;2023-07-24T23:35:37;15.2;88.1
72919;SHT30;68407;55.694;26.994;2023-07-24T23:41:05;15.3;87.9
72919;SHT30;68407;55.694;26.994;2023-07-24T23:45:17;15.2;87.1
72919;SHT30;68407;55.694;26.994;2023-07-24T23:50:35;15.2;87.1
72919;SHT30;68407;55.694;26.994;2023-07-24T23:55:17;15.2;87.4
